sensor_id;sensor_type;location;lat;lon;timestamp;temperature;humidity
38118;DHT22;23928;47.562;7.508;2023-05-20T00:01:00;12.70;99.90
38118;DHT22;23928;47.562;7.508;2023-05-20T00:03:26;12.60;99.90
38118;DHT22;23928;47.562;7.508;2023-05-20T00:05:51;12.60;99.90
38118;DHT22;23928;47.562;7.508;2023-05-20T00:08:18;12.60;99.90
38118;DHT22;23928;47.562;7.508;2023-05-20T00:10:43;12.60;99.90
38118;DHT22;23928;47.562;7.508;2023-05-20T00:13:09;12.70;99.90
38118;DHT22;23928;47.562;7.508;2023-05-20T00:15:35;12.70;99.90
38118;DHT22;23928;47.562;7.508;2023-05-20T00:18:01;12.70;99.90
38118;DHT22;23928;47.562;7.508;2023-05-20T00:20:27;12.70;99.90
38118;DHT22;23928;47.562;7.508;2023-05-20T00:22:52;12.70;99.90
38118;DHT22;23928;47.562;7.508;2023-05-20T00:25:18;12.70;99.90
38118;DHT22;23928;47.562;7.508;2023-05-20T00:27:44;12.70;99.90
38118;DHT22;23928;47.562;7.508;2023-05-20T00:30:10;12.70;99.90
38118;DHT22;23928;47.562;7.508;2023-05-20T00:32:36;12.70;99.90
38118;DHT22;23928;47.562;7.508;2023-05-20T00:35:02;12.70;99.90
38118;DHT22;23928;47.562;7.508;2023-05-20T00:37:28;12.70;99.90
38118;DHT22;23928;47.562;7.508;2023-05-20T00:39:54;12.70;99.90
38118;DHT22;23928;47.562;7.508;2023-05-20T00:44:46;12.60;99.90
38118;DHT22;23928;47.562;7.508;2023-05-20T00:47:12;12.60;99.90
38118;DHT22;23928;47.562;7.508;2023-05-20T00:49:38;12.60;99.90
38118;DHT22;23928;47.562;7.508;2023-05-20T00:52:04;12.60;99.90
38118;DHT22;23928;47.562;7.508;2023-05-20T00:54:30;12.60;99.90
38118;DHT22;23928;47.562;7.508;2023-05-20T00:56:57;12.50;99.90
38118;DHT22;23928;47.562;7.508;2023-05-20T00:59:24;12.70;99.90
38118;DHT22;23928;47.562;7.508;2023-05-20T01:01:50;12.60;99.90
38118;DHT22;23928;47.562;7.508;2023-05-20T01:04:16;12.70;99.90
38118;DHT22;23928;47.562;7.508;2023-05-20T01:06:42;12.50;99.90
38118;DHT22;23928;47.562;7.508;2023-05-20T01:09:10;12.60;99.90
38118;DHT22;23928;47.562;7.508;2023-05-20T01:11:47;12.60;99.90
38118;DHT22;23928;47.562;7.508;2023-05-20T01:14:17;12.70;99.90
38118;DHT22;23928;47.562;7.508;2023-05-20T01:16:44;12.60;99.90
38118;DHT22;23928;47.562;7.508;2023-05-20T01:19:37;12.60;99.90
38118;DHT22;23928;47.562;7.508;2023-05-20T01:22:06;12.60;99.90
38118;DHT22;23928;47.562;7.508;2023-05-20T01:24:32;12.50;99.90
38118;DHT22;23928;47.562;7.508;2023-05-20T01:26:58;12.50;99.90
38118;DHT22;23928;47.562;7.508;2023-05-20T01:29:24;12.60;99.90
38118;DHT22;23928;47.562;7.508;2023-05-20T01:31:52;12.60;99.90
38118;DHT22;23928;47.562;7.508;2023-05-20T01:34:18;12.60;99.90
38118;DHT22;23928;47.562;7.508;2023-05-20T01:36:45;12.70;99.90
38118;DHT22;23928;47.562;7.508;2023-05-20T01:39:12;12.50;99.90
38118;DHT22;23928;47.562;7.508;2023-05-20T01:41:38;12.60;99.90
38118;DHT22;23928;47.562;7.508;2023-05-20T01:44:05;12.70;99.90
38118;DHT22;23928;47.562;7.508;2023-05-20T01:46:34;12.60;99.90
38118;DHT22;23928;47.562;7.508;2023-05-20T01:48:59;12.70;99.90
38118;DHT22;23928;47.562;7.508;2023-05-20T01:51:25;12.80;99.90
38118;DHT22;23928;47.562;7.508;2023-05-20T01:53:51;12.70;99.90
38118;DHT22;23928;47.562;7.508;2023-05-20T01:56:16;12.70;99.90
38118;DHT22;23928;47.562;7.508;2023-05-20T01:58:42;12.60;99.90
38118;DHT22;23928;47.562;7.508;2023-05-20T02:01:07;12.50;99.90
38118;DHT22;23928;47.562;7.508;2023-05-20T02:03:33;12.30;99.90
38118;DHT22;23928;47.562;7.508;2023-05-20T02:05:59;12.40;99.90
38118;DHT22;23928;47.562;7.508;2023-05-20T02:08:24;12.40;99.90
38118;DHT22;23928;47.562;7.508;2023-05-20T02:10:50;12.30;99.90
38118;DHT22;23928;47.562;7.508;2023-05-20T02:13:15;12.60;99.90
38118;DHT22;23928;47.562;7.508;2023-05-20T02:15:41;12.50;99.90
38118;DHT22;23928;47.562;7.508;2023-05-20T02:18:07;12.40;99.90
38118;DHT22;23928;47.562;7.508;2023-05-20T02:20:34;12.50;99.90
38118;DHT22;23928;47.562;7.508;2023-05-20T02:23:00;12.60;99.90
38118;DHT22;23928;47.562;7.508;2023-05-20T02:25:27;12.30;99.90
38118;DHT22;23928;47.562;7.508;2023-05-20T02:27:52;12.40;99.90
38118;DHT22;23928;47.562;7.508;2023-05-20T02:30:18;12.30;99.90
38118;DHT22;23928;47.562;7.508;2023-05-20T02:32:44;12.30;99.90
38118;DHT22;23928;47.562;7.508;2023-05-20T02:35:09;12.40;99.90
38118;DHT22;23928;47.562;7.508;2023-05-20T02:37:35;12.40;99.90
38118;DHT22;23928;47.562;7.508;2023-05-20T02:40:03;12.40;99.90
38118;DHT22;23928;47.562;7.508;2023-05-20T02:42:29;12.40;99.90
38118;DHT22;23928;47.562;7.508;2023-05-20T02:44:55;12.50;99.90
38118;DHT22;23928;47.562;7.508;2023-05-20T02:47:23;12.50;99.90
38118;DHT22;23928;47.562;7.508;2023-05-20T02:49:49;12.40;99.90
38118;DHT22;23928;47.562;7.508;2023-05-20T02:52:15;12.40;99.90
38118;DHT22;23928;47.562;7.508;2023-05-20T02:54:40;12.30;99.90
38118;DHT22;23928;47.562;7.508;2023-05-20T02:57:06;12.50;99.90
38118;DHT22;23928;47.562;7.508;2023-05-20T02:59:31;12.50;99.90
38118;DHT22;23928;47.562;7.508;2023-05-20T03:01:57;12.50;99.90
38118;DHT22;23928;47.562;7.508;2023-05-20T03:04:23;12.50;99.90
38118;DHT22;23928;47.562;7.508;2023-05-20T03:06:50;12.40;99.90
38118;DHT22;23928;47.562;7.508;2023-05-20T03:09:16;12.40;99.90
38118;DHT22;23928;47.562;7.508;2023-05-20T03:11:44;12.40;99.90
38118;DHT22;23928;47.562;7.508;2023-05-20T03:14:10;12.50;99.90
38118;DHT22;23928;47.562;7.508;2023-05-20T03:16:35;12.40;99.90
38118;DHT22;23928;47.562;7.508;2023-05-20T03:19:01;12.40;99.90
38118;DHT22;23928;47.562;7.508;2023-05-20T03:21:27;12.20;99.90
38118;DHT22;23928;47.562;7.508;2023-05-20T03:23:52;12.10;99.90
38118;DHT22;23928;47.562;7.508;2023-05-20T03:26:18;12.10;99.90
38118;DHT22;23928;47.562;7.508;2023-05-20T03:28:44;12.30;99.90
38118;DHT22;23928;47.562;7.508;2023-05-20T03:31:09;12.30;99.90
38118;DHT22;23928;47.562;7.508;2023-05-20T03:33:35;12.30;99.90
38118;DHT22;23928;47.562;7.508;2023-05-20T03:36:01;12.30;99.90
38118;DHT22;23928;47.562;7.508;2023-05-20T03:38:26;12.40;99.90
38118;DHT22;23928;47.562;7.508;2023-05-20T03:40:52;12.40;99.90
38118;DHT22;23928;47.562;7.508;2023-05-20T03:43:18;12.40;99.90
38118;DHT22;23928;47.562;7.508;2023-05-20T03:45:43;12.40;99.90
38118;DHT22;23928;47.562;7.508;2023-05-20T03:48:09;12.40;99.90
38118;DHT22;23928;47.562;7.508;2023-05-20T03:50:35;12.50;99.90
38118;DHT22;23928;47.562;7.508;2023-05-20T03:53:00;12.40;99.90
38118;DHT22;23928;47.562;7.508;2023-05-20T03:55:26;12.20;99.90
38118;DHT22;23928;47.562;7.508;2023-05-20T03:57:52;12.40;99.90
38118;DHT22;23928;47.562;7.508;2023-05-20T04:00:17;12.40;99.90
38118;DHT22;23928;47.562;7.508;2023-05-20T04:02:43;12.30;99.90
38118;DHT22;23928;47.562;7.508;2023-05-20T04:05:09;12.30;99.90
38118;DHT22;23928;47.562;7.508;2023-05-20T04:07:35;12.30;99.90
38118;DHT22;23928;47.562;7.508;2023-05-20T04:10:01;12.50;99.90
38118;DHT22;23928;47.562;7.508;2023-05-20T04:12:26;12.40;99.90
38118;DHT22;23928;47.562;7.508;2023-05-20T04:14:58;12.40;99.90
38118;DHT22;23928;47.562;7.508;2023-05-20T04:17:28;12.40;99.90
38118;DHT22;23928;47.562;7.508;2023-05-20T04:19:55;12.50;99.90
38118;DHT22;23928;47.562;7.508;2023-05-20T04:22:21;12.50;99.90
38118;DHT22;23928;47.562;7.508;2023-05-20T04:24:47;12.40;99.90
38118;DHT22;23928;47.562;7.508;2023-05-20T04:27:13;12.50;99.90
38118;DHT22;23928;47.562;7.508;2023-05-20T04:29:39;12.40;99.90
38118;DHT22;23928;47.562;7.508;2023-05-20T04:32:06;12.60;99.90
38118;DHT22;23928;47.562;7.508;2023-05-20T04:34:32;12.50;99.90
38118;DHT22;23928;47.562;7.508;2023-05-20T04:36:59;12.50;99.90
38118;DHT22;23928;47.562;7.508;2023-05-20T04:39:25;12.50;99.90
38118;DHT22;23928;47.562;7.508;2023-05-20T04:41:51;12.50;99.90
38118;DHT22;23928;47.562;7.508;2023-05-20T04:44:19;12.50;99.90
38118;DHT22;23928;47.562;7.508;2023-05-20T04:46:45;12.50;99.90
38118;DHT22;23928;47.562;7.508;2023-05-20T04:49:11;12.40;99.90
38118;DHT22;23928;47.562;7.508;2023-05-20T04:51:36;12.30;99.90
38118;DHT22;23928;47.562;7.508;2023-05-20T04:54:02;12.50;99.90
38118;DHT22;23928;47.562;7.508;2023-05-20T04:56:27;12.60;99.90
38118;DHT22;23928;47.562;7.508;2023-05-20T04:58:53;12.60;99.90
38118;DHT22;23928;47.562;7.508;2023-05-20T05:01:20;12.50;99.90
38118;DHT22;23928;47.562;7.508;2023-05-20T05:03:46;12.60;99.90
38118;DHT22;23928;47.562;7.508;2023-05-20T05:06:11;12.50;99.90
38118;DHT22;23928;47.562;7.508;2023-05-20T05:08:37;12.40;99.90
38118;DHT22;23928;47.562;7.508;2023-05-20T05:11:04;12.50;99.90
38118;DHT22;23928;47.562;7.508;2023-05-20T05:13:31;12.50;99.90
38118;DHT22;23928;47.562;7.508;2023-05-20T05:16:00;12.60;99.90
38118;DHT22;23928;47.562;7.508;2023-05-20T05:18:26;12.60;99.90
38118;DHT22;23928;47.562;7.508;2023-05-20T05:21:02;12.70;99.90
38118;DHT22;23928;47.562;7.508;2023-05-20T05:23:28;12.50;99.90
38118;DHT22;23928;47.562;7.508;2023-05-20T05:25:54;12.60;99.90
38118;DHT22;23928;47.562;7.508;2023-05-20T05:28:20;12.50;99.90
38118;DHT22;23928;47.562;7.508;2023-05-20T05:30:45;12.60;99.90
38118;DHT22;23928;47.562;7.508;2023-05-20T05:33:12;12.50;99.90
38118;DHT22;23928;47.562;7.508;2023-05-20T05:35:38;12.50;99.90
38118;DHT22;23928;47.562;7.508;2023-05-20T05:38:04;12.60;99.90
38118;DHT22;23928;47.562;7.508;2023-05-20T05:40:29;12.50;99.90
38118;DHT22;23928;47.562;7.508;2023-05-20T05:42:55;12.50;99.90
38118;DHT22;23928;47.562;7.508;2023-05-20T05:45:20;12.40;99.90
38118;DHT22;23928;47.562;7.508;2023-05-20T05:47:46;12.50;99.90
38118;DHT22;23928;47.562;7.508;2023-05-20T05:50:11;12.50;99.90
38118;DHT22;23928;47.562;7.508;2023-05-20T05:52:37;12.50;99.90
38118;DHT22;23928;47.562;7.508;2023-05-20T05:55:03;12.60;99.90
38118;DHT22;23928;47.562;7.508;2023-05-20T05:57:28;12.60;99.90
38118;DHT22;23928;47.562;7.508;2023-05-20T05:59:54;12.70;99.90
38118;DHT22;23928;47.562;7.508;2023-05-20T06:02:20;12.60;99.90
38118;DHT22;23928;47.562;7.508;2023-05-20T06:04:46;12.60;99.90
38118;DHT22;23928;47.562;7.508;2023-05-20T06:07:11;12.60;99.90
38118;DHT22;23928;47.562;7.508;2023-05-20T06:09:38;12.70;99.90
38118;DHT22;23928;47.562;7.508;2023-05-20T06:12:04;12.80;99.90
38118;DHT22;23928;47.562;7.508;2023-05-20T06:14:29;12.90;99.90
38118;DHT22;23928;47.562;7.508;2023-05-20T06:16:56;13.00;99.90
38118;DHT22;23928;47.562;7.508;2023-05-20T06:19:22;13.00;99.90
38118;DHT22;23928;47.562;7.508;2023-05-20T06:21:48;12.80;99.90
38118;DHT22;23928;47.562;7.508;2023-05-20T06:24:13;12.70;99.90
38118;DHT22;23928;47.562;7.508;2023-05-20T06:26:39;12.70;99.90
38118;DHT22;23928;47.562;7.508;2023-05-20T06:29:05;12.70;99.90
38118;DHT22;23928;47.562;7.508;2023-05-20T06:31:30;12.80;99.90
38118;DHT22;23928;47.562;7.508;2023-05-20T06:33:56;12.70;99.90
38118;DHT22;23928;47.562;7.508;2023-05-20T06:36:21;12.60;99.90
38118;DHT22;23928;47.562;7.508;2023-05-20T06:38:47;12.80;99.90
38118;DHT22;23928;47.562;7.508;2023-05-20T06:41:12;13.10;99.90
38118;DHT22;23928;47.562;7.508;2023-05-20T06:43:38;12.80;99.90
38118;DHT22;23928;47.562;7.508;2023-05-20T06:46:05;13.00;99.90
38118;DHT22;23928;47.562;7.508;2023-05-20T06:48:31;13.10;99.90
38118;DHT22;23928;47.562;7.508;2023-05-20T06:50:56;13.00;99.90
38118;DHT22;23928;47.562;7.508;2023-05-20T06:53:22;13.10;99.90
38118;DHT22;23928;47.562;7.508;2023-05-20T06:55:48;13.30;99.90
38118;DHT22;23928;47.562;7.508;2023-05-20T06:58:13;13.60;99.90
38118;DHT22;23928;47.562;7.508;2023-05-20T07:00:39;13.70;99.90
38118;DHT22;23928;47.562;7.508;2023-05-20T07:03:05;13.70;99.90
38118;DHT22;23928;47.562;7.508;2023-05-20T07:05:31;13.90;99.90
38118;DHT22;23928;47.562;7.508;2023-05-20T07:07:56;14.10;99.90
38118;DHT22;23928;47.562;7.508;2023-05-20T07:10:22;14.10;99.90
38118;DHT22;23928;47.562;7.508;2023-05-20T07:12:48;13.90;99.90
38118;DHT22;23928;47.562;7.508;2023-05-20T07:15:13;14.00;99.90
38118;DHT22;23928;47.562;7.508;2023-05-20T07:17:39;13.80;99.90
38118;DHT22;23928;47.562;7.508;2023-05-20T07:20:05;13.60;99.90
38118;DHT22;23928;47.562;7.508;2023-05-20T07:22:31;13.60;99.90
38118;DHT22;23928;47.562;7.508;2023-05-20T07:24:56;13.70;99.90
38118;DHT22;23928;47.562;7.508;2023-05-20T07:27:22;13.70;99.90
38118;DHT22;23928;47.562;7.508;2023-05-20T07:29:47;14.10;99.90
38118;DHT22;23928;47.562;7.508;2023-05-20T07:32:13;14.10;99.90
38118;DHT22;23928;47.562;7.508;2023-05-20T07:34:39;14.30;99.90
38118;DHT22;23928;47.562;7.508;2023-05-20T07:37:04;14.30;99.90
38118;DHT22;23928;47.562;7.508;2023-05-20T07:39:30;13.80;99.90
38118;DHT22;23928;47.562;7.508;2023-05-20T07:41:56;13.60;99.90
38118;DHT22;23928;47.562;7.508;2023-05-20T07:44:22;13.80;99.90
38118;DHT22;23928;47.562;7.508;2023-05-20T07:46:47;13.60;99.90
38118;DHT22;23928;47.562;7.508;2023-05-20T07:49:13;13.60;99.90
38118;DHT22;23928;47.562;7.508;2023-05-20T07:51:39;13.70;99.90
38118;DHT22;23928;47.562;7.508;2023-05-20T07:54:04;13.70;99.90
38118;DHT22;23928;47.562;7.508;2023-05-20T07:56:30;13.80;99.90
38118;DHT22;23928;47.562;7.508;2023-05-20T07:58:58;13.60;99.90
38118;DHT22;23928;47.562;7.508;2023-05-20T08:01:24;13.70;99.90
38118;DHT22;23928;47.562;7.508;2023-05-20T08:03:51;13.60;99.90
38118;DHT22;23928;47.562;7.508;2023-05-20T08:06:17;13.60;99.90
38118;DHT22;23928;47.562;7.508;2023-05-20T08:08:45;13.90;99.90
38118;DHT22;23928;47.562;7.508;2023-05-20T08:11:11;13.90;99.90
38118;DHT22;23928;47.562;7.508;2023-05-20T08:13:36;14.00;99.90
38118;DHT22;23928;47.562;7.508;2023-05-20T08:16:02;14.00;99.90
38118;DHT22;23928;47.562;7.508;2023-05-20T08:18:29;14.00;99.90
38118;DHT22;23928;47.562;7.508;2023-05-20T08:20:54;14.10;99.90
38118;DHT22;23928;47.562;7.508;2023-05-20T08:23:20;14.20;99.90
38118;DHT22;23928;47.562;7.508;2023-05-20T08:25:46;14.30;99.90
38118;DHT22;23928;47.562;7.508;2023-05-20T08:28:12;14.40;99.90
38118;DHT22;23928;47.562;7.508;2023-05-20T08:30:38;14.40;99.90
38118;DHT22;23928;47.562;7.508;2023-05-20T08:33:03;14.50;99.90
38118;DHT22;23928;47.562;7.508;2023-05-20T08:35:29;14.30;99.90
38118;DHT22;23928;47.562;7.508;2023-05-20T08:37:55;14.30;99.90
38118;DHT22;23928;47.562;7.508;2023-05-20T08:40:21;14.40;99.90
38118;DHT22;23928;47.562;7.508;2023-05-20T08:42:50;14.50;99.90
38118;DHT22;23928;47.562;7.508;2023-05-20T08:45:20;14.70;99.90
38118;DHT22;23928;47.562;7.508;2023-05-20T08:47:50;14.30;99.90
38118;DHT22;23928;47.562;7.508;2023-05-20T08:50:16;14.60;99.90
38118;DHT22;23928;47.562;7.508;2023-05-20T08:52:44;14.80;99.90
38118;DHT22;23928;47.562;7.508;2023-05-20T08:55:32;14.80;99.90
38118;DHT22;23928;47.562;7.508;2023-05-20T08:58:01;14.90;99.90
38118;DHT22;23928;47.562;7.508;2023-05-20T09:00:27;14.80;99.90
38118;DHT22;23928;47.562;7.508;2023-05-20T09:02:54;14.90;99.90
38118;DHT22;23928;47.562;7.508;2023-05-20T09:05:20;15.30;99.90
38118;DHT22;23928;47.562;7.508;2023-05-20T09:07:47;15.30;99.90
38118;DHT22;23928;47.562;7.508;2023-05-20T09:10:12;15.50;99.90
38118;DHT22;23928;47.562;7.508;2023-05-20T09:12:38;15.60;99.90
38118;DHT22;23928;47.562;7.508;2023-05-20T09:15:05;15.50;99.90
38118;DHT22;23928;47.562;7.508;2023-05-20T09:17:33;15.60;99.90
38118;DHT22;23928;47.562;7.508;2023-05-20T09:19:59;15.60;99.90
38118;DHT22;23928;47.562;7.508;2023-05-20T09:22:27;15.70;99.90
38118;DHT22;23928;47.562;7.508;2023-05-20T09:24:53;15.70;99.90
38118;DHT22;23928;47.562;7.508;2023-05-20T09:27:20;16.00;99.90
38118;DHT22;23928;47.562;7.508;2023-05-20T09:29:47;15.50;99.90
38118;DHT22;23928;47.562;7.508;2023-05-20T09:32:13;15.60;99.90
38118;DHT22;23928;47.562;7.508;2023-05-20T09:34:39;15.80;99.90
38118;DHT22;23928;47.562;7.508;2023-05-20T09:37:08;16.30;99.90
38118;DHT22;23928;47.562;7.508;2023-05-20T09:39:43;16.60;99.90
38118;DHT22;23928;47.562;7.508;2023-05-20T09:42:19;16.20;99.90
38118;DHT22;23928;47.562;7.508;2023-05-20T09:44:47;16.40;99.90
38118;DHT22;23928;47.562;7.508;2023-05-20T09:47:15;15.90;99.90
38118;DHT22;23928;47.562;7.508;2023-05-20T09:49:41;16.30;99.90
38118;DHT22;23928;47.562;7.508;2023-05-20T09:52:08;17.20;99.90
38118;DHT22;23928;47.562;7.508;2023-05-20T09:54:35;17.70;99.90
38118;DHT22;23928;47.562;7.508;2023-05-20T09:57:02;18.20;99.90
38118;DHT22;23928;47.562;7.508;2023-05-20T09:59:30;18.20;99.90
38118;DHT22;23928;47.562;7.508;2023-05-20T10:01:55;18.30;99.90
38118;DHT22;23928;47.562;7.508;2023-05-20T10:04:22;17.30;99.90
38118;DHT22;23928;47.562;7.508;2023-05-20T10:06:54;17.00;99.90
38118;DHT22;23928;47.562;7.508;2023-05-20T10:13:03;17.20;99.90
38118;DHT22;23928;47.562;7.508;2023-05-20T10:15:56;17.50;99.90
38118;DHT22;23928;47.562;7.508;2023-05-20T10:21:21;18.30;99.90
38118;DHT22;23928;47.562;7.508;2023-05-20T10:23:51;18.30;99.90
38118;DHT22;23928;47.562;7.508;2023-05-20T10:26:16;18.70;99.90
38118;DHT22;23928;47.562;7.508;2023-05-20T10:28:43;18.50;99.90
38118;DHT22;23928;47.562;7.508;2023-05-20T10:31:24;18.60;99.90
38118;DHT22;23928;47.562;7.508;2023-05-20T10:33:52;17.70;99.90
38118;DHT22;23928;47.562;7.508;2023-05-20T10:36:27;18.50;99.90
38118;DHT22;23928;47.562;7.508;2023-05-20T10:38:56;18.70;99.90
38118;DHT22;23928;47.562;7.508;2023-05-20T10:41:27;18.60;99.90
38118;DHT22;23928;47.562;7.508;2023-05-20T10:44:03;19.00;99.90
38118;DHT22;23928;47.562;7.508;2023-05-20T10:46:30;19.50;99.90
38118;DHT22;23928;47.562;7.508;2023-05-20T10:48:57;19.40;99.90
38118;DHT22;23928;47.562;7.508;2023-05-20T10:51:23;20.00;99.90
38118;DHT22;23928;47.562;7.508;2023-05-20T10:53:52;20.00;99.90
38118;DHT22;23928;47.562;7.508;2023-05-20T10:56:21;19.60;99.90
38118;DHT22;23928;47.562;7.508;2023-05-20T10:58:48;20.10;99.90
38118;DHT22;23928;47.562;7.508;2023-05-20T11:01:15;20.50;99.90
38118;DHT22;23928;47.562;7.508;2023-05-20T11:03:42;20.30;99.90
38118;DHT22;23928;47.562;7.508;2023-05-20T11:06:17;20.50;99.90
38118;DHT22;23928;47.562;7.508;2023-05-20T11:08:43;20.40;99.90
38118;DHT22;23928;47.562;7.508;2023-05-20T11:11:13;20.50;99.90
38118;DHT22;23928;47.562;7.508;2023-05-20T11:13:39;20.90;99.90
38118;DHT22;23928;47.562;7.508;2023-05-20T11:16:05;20.90;99.90
38118;DHT22;23928;47.562;7.508;2023-05-20T11:18:31;20.90;99.90
38118;DHT22;23928;47.562;7.508;2023-05-20T11:21:00;21.00;99.90
38118;DHT22;23928;47.562;7.508;2023-05-20T11:23:27;19.90;99.90
38118;DHT22;23928;47.562;7.508;2023-05-20T11:25:54;19.90;99.90
38118;DHT22;23928;47.562;7.508;2023-05-20T11:28:21;20.10;99.90
38118;DHT22;23928;47.562;7.508;2023-05-20T11:30:47;20.10;99.90
38118;DHT22;23928;47.562;7.508;2023-05-20T11:33:14;19.60;99.90
38118;DHT22;23928;47.562;7.508;2023-05-20T11:35:48;19.60;99.90
38118;DHT22;23928;47.562;7.508;2023-05-20T11:38:14;19.30;99.90
38118;DHT22;23928;47.562;7.508;2023-05-20T11:40:44;19.40;99.90
38118;DHT22;23928;47.562;7.508;2023-05-20T11:43:11;18.90;99.90
38118;DHT22;23928;47.562;7.508;2023-05-20T11:45:45;18.60;99.90
38118;DHT22;23928;47.562;7.508;2023-05-20T11:48:11;18.50;99.90
38118;DHT22;23928;47.562;7.508;2023-05-20T11:50:43;18.20;99.90
38118;DHT22;23928;47.562;7.508;2023-05-20T11:53:17;18.20;99.90
38118;DHT22;23928;47.562;7.508;2023-05-20T11:55:48;18.30;99.90
38118;DHT22;23928;47.562;7.508;2023-05-20T11:58:22;18.50;99.90
38118;DHT22;23928;47.562;7.508;2023-05-20T12:00:48;18.80;99.90
38118;DHT22;23928;47.562;7.508;2023-05-20T12:03:14;19.40;99.90
38118;DHT22;23928;47.562;7.508;2023-05-20T12:05:40;19.60;99.90
38118;DHT22;23928;47.562;7.508;2023-05-20T12:08:06;19.80;99.90
38118;DHT22;23928;47.562;7.508;2023-05-20T12:10:32;20.30;99.90
38118;DHT22;23928;47.562;7.508;2023-05-20T12:12:58;20.30;99.90
38118;DHT22;23928;47.562;7.508;2023-05-20T12:15:24;19.90;99.90
38118;DHT22;23928;47.562;7.508;2023-05-20T12:17:51;19.90;99.90
38118;DHT22;23928;47.562;7.508;2023-05-20T12:20:23;20.10;99.90
38118;DHT22;23928;47.562;7.508;2023-05-20T12:22:49;19.50;99.90
38118;DHT22;23928;47.562;7.508;2023-05-20T12:25:16;19.50;99.90
38118;DHT22;23928;47.562;7.508;2023-05-20T12:27:44;19.60;99.90
38118;DHT22;23928;47.562;7.508;2023-05-20T12:30:15;19.70;99.90
38118;DHT22;23928;47.562;7.508;2023-05-20T12:32:41;19.50;99.90
38118;DHT22;23928;47.562;7.508;2023-05-20T12:35:08;20.10;99.90
38118;DHT22;23928;47.562;7.508;2023-05-20T12:37:34;20.40;99.90
38118;DHT22;23928;47.562;7.508;2023-05-20T12:40:00;20.50;99.90
38118;DHT22;23928;47.562;7.508;2023-05-20T12:42:26;20.30;99.90
38118;DHT22;23928;47.562;7.508;2023-05-20T12:44:52;20.30;99.90
38118;DHT22;23928;47.562;7.508;2023-05-20T12:47:19;19.60;99.90
38118;DHT22;23928;47.562;7.508;2023-05-20T12:49:45;19.20;99.90
38118;DHT22;23928;47.562;7.508;2023-05-20T12:52:10;18.90;99.90
38118;DHT22;23928;47.562;7.508;2023-05-20T12:54:36;18.70;99.90
38118;DHT22;23928;47.562;7.508;2023-05-20T12:57:01;18.60;99.90
38118;DHT22;23928;47.562;7.508;2023-05-20T12:59:27;19.10;99.90
38118;DHT22;23928;47.562;7.508;2023-05-20T13:01:53;19.10;99.90
38118;DHT22;23928;47.562;7.508;2023-05-20T13:04:18;18.90;99.90
38118;DHT22;23928;47.562;7.508;2023-05-20T13:06:44;19.10;99.90
38118;DHT22;23928;47.562;7.508;2023-05-20T13:09:10;19.10;99.90
38118;DHT22;23928;47.562;7.508;2023-05-20T13:11:35;19.30;99.90
38118;DHT22;23928;47.562;7.508;2023-05-20T13:14:01;19.50;99.90
38118;DHT22;23928;47.562;7.508;2023-05-20T13:16:26;19.70;99.90
38118;DHT22;23928;47.562;7.508;2023-05-20T13:18:52;19.50;99.90
38118;DHT22;23928;47.562;7.508;2023-05-20T13:21:18;19.50;99.90
38118;DHT22;23928;47.562;7.508;2023-05-20T13:23:44;19.40;99.90
38118;DHT22;23928;47.562;7.508;2023-05-20T13:26:09;19.60;99.90
38118;DHT22;23928;47.562;7.508;2023-05-20T13:28:35;19.70;99.90
38118;DHT22;23928;47.562;7.508;2023-05-20T13:31:03;19.30;99.90
38118;DHT22;23928;47.562;7.508;2023-05-20T13:33:29;19.10;99.90
38118;DHT22;23928;47.562;7.508;2023-05-20T13:35:54;19.10;99.90
38118;DHT22;23928;47.562;7.508;2023-05-20T13:38:20;19.40;99.90
38118;DHT22;23928;47.562;7.508;2023-05-20T13:40:46;19.80;99.90
38118;DHT22;23928;47.562;7.508;2023-05-20T13:43:13;19.80;99.90
38118;DHT22;23928;47.562;7.508;2023-05-20T13:45:38;19.70;99.90
38118;DHT22;23928;47.562;7.508;2023-05-20T13:48:04;19.40;99.90
38118;DHT22;23928;47.562;7.508;2023-05-20T13:50:30;19.40;99.90
38118;DHT22;23928;47.562;7.508;2023-05-20T13:52:55;19.50;99.90
38118;DHT22;23928;47.562;7.508;2023-05-20T13:55:21;19.20;99.90
38118;DHT22;23928;47.562;7.508;2023-05-20T13:57:47;19.10;99.90
38118;DHT22;23928;47.562;7.508;2023-05-20T14:00:13;18.90;99.90
38118;DHT22;23928;47.562;7.508;2023-05-20T14:02:38;19.20;99.90
38118;DHT22;23928;47.562;7.508;2023-05-20T14:05:05;19.00;99.90
38118;DHT22;23928;47.562;7.508;2023-05-20T14:07:31;18.90;99.90
38118;DHT22;23928;47.562;7.508;2023-05-20T14:09:57;19.10;99.90
38118;DHT22;23928;47.562;7.508;2023-05-20T14:12:22;19.10;99.90
38118;DHT22;23928;47.562;7.508;2023-05-20T14:14:48;19.10;99.90
38118;DHT22;23928;47.562;7.508;2023-05-20T14:17:14;19.40;99.90
38118;DHT22;23928;47.562;7.508;2023-05-20T14:19:40;19.30;99.90
38118;DHT22;23928;47.562;7.508;2023-05-20T14:22:05;19.20;99.90
38118;DHT22;23928;47.562;7.508;2023-05-20T14:24:31;19.20;99.90
38118;DHT22;23928;47.562;7.508;2023-05-20T14:26:56;19.40;99.90
38118;DHT22;23928;47.562;7.508;2023-05-20T14:29:22;19.30;99.90
38118;DHT22;23928;47.562;7.508;2023-05-20T14:31:48;19.30;99.90
38118;DHT22;23928;47.562;7.508;2023-05-20T14:34:13;19.10;99.90
38118;DHT22;23928;47.562;7.508;2023-05-20T14:36:39;18.90;99.90
38118;DHT22;23928;47.562;7.508;2023-05-20T14:39:06;19.00;99.90
38118;DHT22;23928;47.562;7.508;2023-05-20T14:41:31;19.00;99.90
38118;DHT22;23928;47.562;7.508;2023-05-20T14:43:57;18.90;99.90
38118;DHT22;23928;47.562;7.508;2023-05-20T14:46:22;18.90;99.90
38118;DHT22;23928;47.562;7.508;2023-05-20T14:48:48;18.80;99.90
38118;DHT22;23928;47.562;7.508;2023-05-20T14:51:13;19.00;99.90
38118;DHT22;23928;47.562;7.508;2023-05-20T14:53:39;19.20;99.90
38118;DHT22;23928;47.562;7.508;2023-05-20T14:56:05;19.30;99.90
38118;DHT22;23928;47.562;7.508;2023-05-20T14:58:30;19.20;99.90
38118;DHT22;23928;47.562;7.508;2023-05-20T15:00:56;19.30;99.90
38118;DHT22;23928;47.562;7.508;2023-05-20T15:03:22;19.30;99.90
38118;DHT22;23928;47.562;7.508;2023-05-20T15:05:48;19.20;99.90
38118;DHT22;23928;47.562;7.508;2023-05-20T15:08:14;19.20;99.90
38118;DHT22;23928;47.562;7.508;2023-05-20T15:10:40;19.10;99.90
38118;DHT22;23928;47.562;7.508;2023-05-20T15:13:06;19.10;99.90
38118;DHT22;23928;47.562;7.508;2023-05-20T15:15:32;19.20;99.90
38118;DHT22;23928;47.562;7.508;2023-05-20T15:17:58;19.30;99.90
38118;DHT22;23928;47.562;7.508;2023-05-20T15:20:23;19.30;99.90
38118;DHT22;23928;47.562;7.508;2023-05-20T15:22:49;19.50;99.90
38118;DHT22;23928;47.562;7.508;2023-05-20T15:25:15;19.60;99.90
38118;DHT22;23928;47.562;7.508;2023-05-20T15:27:41;19.60;99.90
38118;DHT22;23928;47.562;7.508;2023-05-20T15:30:08;19.70;99.90
38118;DHT22;23928;47.562;7.508;2023-05-20T15:32:34;19.50;99.90
38118;DHT22;23928;47.562;7.508;2023-05-20T15:34:59;19.40;99.90